createdAt,value
2019-05-01T00:02:51.249Z,101011
2019-05-01T00:08:15.072Z,100995
2019-05-01T00:13:38.588Z,100994
2019-05-01T00:19:01.372Z,100998
2019-05-01T00:24:24.092Z,100991
2019-05-01T00:29:46.884Z,100990
2019-05-01T00:35:09.627Z,100992
2019-05-01T00:40:32.404Z,100993
2019-05-01T00:45:55.097Z,100984
2019-05-01T00:51:18.565Z,100982
2019-05-01T00:56:41.249Z,100980
2019-05-01T01:02:03.934Z,100969
2019-05-01T01:07:26.650Z,100965
2019-05-01T01:12:49.391Z,100961
2019-05-01T01:18:13.068Z,100952
2019-05-01T01:23:35.920Z,100953
2019-05-01T01:28:58.627Z,100934
2019-05-01T01:34:21.376Z,100933
2019-05-01T01:39:44.048Z,100939
2019-05-01T01:45:06.681Z,100941
2019-05-01T01:50:30.183Z,100940
2019-05-01T01:55:52.834Z,100944
2019-05-01T02:01:15.466Z,100940
2019-05-01T02:06:38.104Z,100937
2019-05-01T02:12:00.750Z,100938
2019-05-01T02:17:23.838Z,100928
2019-05-01T02:22:46.537Z,100918
2019-05-01T02:28:09.341Z,100925
2019-05-01T02:33:32.073Z,100919
2019-05-01T02:38:55.656Z,100913
2019-05-01T02:44:18.328Z,100913
2019-05-01T02:49:41.099Z,100914
2019-05-01T02:55:04.751Z,100908
2019-05-01T03:00:27.534Z,100894
2019-05-01T03:05:50.270Z,100892
2019-05-01T03:11:12.946Z,100885
2019-05-01T03:16:35.623Z,100879
2019-05-01T03:21:58.364Z,100878
2019-05-01T03:27:21.132Z,100869
2019-05-01T03:32:43.919Z,100872
2019-05-01T03:38:06.668Z,100875
2019-05-01T03:43:30.449Z,100870
2019-05-01T03:48:53.173Z,100873
2019-05-01T03:54:15.829Z,100866
2019-05-01T03:59:39.164Z,100868
2019-05-01T04:05:02.093Z,100868
2019-05-01T04:10:24.766Z,100873
2019-05-01T04:15:47.804Z,100877
2019-05-01T04:21:11.542Z,100879
2019-05-01T04:26:34.230Z,100886
2019-05-01T04:31:56.900Z,100884
2019-05-01T04:37:19.584Z,100880
2019-05-01T04:42:42.410Z,100887
2019-05-01T04:48:05.106Z,100885
2019-05-01T04:53:28.020Z,100888
2019-05-01T04:58:51.552Z,100889
2019-05-01T05:04:14.189Z,100895
2019-05-01T05:09:38.229Z,100905
2019-05-01T05:15:00.989Z,100905
2019-05-01T05:20:24.708Z,100905
2019-05-01T05:25:48.667Z,100900
2019-05-01T05:31:11.329Z,100899
2019-05-01T05:36:34.004Z,100897
2019-05-01T05:41:56.632Z,100904
2019-05-01T05:47:20.342Z,100903
2019-05-01T05:52:44.161Z,100897
2019-05-01T05:58:06.885Z,100908
2019-05-01T06:03:31.101Z,100895
2019-05-01T06:08:53.180Z,100897
2019-05-01T06:14:15.844Z,100890
2019-05-01T06:19:38.560Z,100887
2019-05-01T06:25:03.306Z,100886
2019-05-01T06:30:26.329Z,100887
2019-05-01T06:35:49.301Z,100887
2019-05-01T06:41:12.295Z,100889
2019-05-01T06:46:35.510Z,100891
2019-05-01T06:51:57.666Z,100892
2019-05-01T06:57:20.344Z,100889
2019-05-01T07:02:43.122Z,100886
2019-05-01T07:08:05.796Z,100889
2019-05-01T07:13:28.458Z,100889
2019-05-01T07:18:52.148Z,100886
2019-05-01T07:24:15.881Z,100879
2019-05-01T07:29:39.753Z,100882
2019-05-01T07:35:03.935Z,100882
2019-05-01T07:40:29.119Z,100885
2019-05-01T07:45:48.526Z,100884
2019-05-01T07:51:11.156Z,100884
2019-05-01T07:56:33.806Z,100876
2019-05-01T08:01:56.445Z,100877
2019-05-01T08:07:19.112Z,100879
2019-05-01T08:12:41.790Z,100877
2019-05-01T08:18:04.806Z,100873
2019-05-01T08:23:27.502Z,100878
2019-05-01T08:28:50.285Z,100869
2019-05-01T08:34:12.947Z,100877
2019-05-01T08:39:39.569Z,100874
2019-05-01T08:45:04.952Z,100871
2019-05-01T08:50:24.665Z,100868
2019-05-01T08:55:47.073Z,100866
2019-05-01T09:01:10.727Z,100868
2019-05-01T09:06:34.669Z,100868
2019-05-01T09:12:00.868Z,100864
2019-05-01T09:17:25.091Z,100858
2019-05-01T09:22:47.733Z,100859
2019-05-01T09:28:10.434Z,100855
2019-05-01T09:33:34.070Z,100847
2019-05-01T09:38:56.725Z,100837
2019-05-01T09:44:19.932Z,100837
2019-05-01T09:49:42.589Z,100834
2019-05-01T09:55:06.275Z,100831
2019-05-01T10:00:28.972Z,100824
2019-05-01T10:05:51.654Z,100828
2019-05-01T10:11:14.262Z,100816
2019-05-01T10:16:37.366Z,100810
2019-05-01T10:22:02.330Z,100812
2019-05-01T10:27:22.637Z,100798
2019-05-01T10:32:46.264Z,100794
2019-05-01T10:38:10.592Z,100783
2019-05-01T10:43:31.569Z,100781
2019-05-01T10:48:56.993Z,100774
2019-05-01T10:54:16.870Z,100765
2019-05-01T10:59:39.496Z,100760
2019-05-01T11:05:02.201Z,100757
2019-05-01T11:10:24.825Z,100755
2019-05-01T11:15:47.464Z,100751
2019-05-01T11:21:10.079Z,100747
2019-05-01T11:26:32.671Z,100746
2019-05-01T11:31:55.820Z,100742
2019-05-01T11:37:18.512Z,100735
2019-05-01T11:42:41.092Z,100734
2019-05-01T11:48:03.754Z,100735
2019-05-01T11:53:26.354Z,100728
2019-05-01T11:58:48.976Z,100723
2019-05-01T12:04:11.554Z,100712
2019-05-01T12:09:34.193Z,100709
2019-05-01T12:14:56.787Z,100705
2019-05-01T12:20:19.467Z,100704
2019-05-01T12:25:42.064Z,100694
2019-05-01T12:31:04.697Z,100676
2019-05-01T12:36:35.921Z,100684
2019-05-01T12:41:50.894Z,100666
2019-05-01T12:47:13.500Z,100656
2019-05-01T12:52:36.142Z,100659
2019-05-01T12:57:58.749Z,100650
2019-05-01T13:03:22.060Z,100638
2019-05-01T13:08:44.684Z,100639
2019-05-01T13:14:07.288Z,100640
2019-05-01T13:19:29.921Z,100632
2019-05-01T13:24:52.581Z,100623
2019-05-01T13:30:15.197Z,100616
2019-05-01T13:35:37.874Z,100610
2019-05-01T13:41:01.456Z,100600
2019-05-01T13:46:24.067Z,100595
2019-05-01T13:51:46.663Z,100589
2019-05-01T13:57:09.283Z,100587
2019-05-01T14:02:31.898Z,100585
2019-05-01T14:07:54.561Z,100573
2019-05-01T14:13:17.132Z,100573
2019-05-01T14:18:39.878Z,100563
2019-05-01T14:24:02.541Z,100553
2019-05-01T14:29:25.131Z,100551
2019-05-01T14:34:47.773Z,100546
2019-05-01T14:40:10.388Z,100543
2019-05-01T14:45:33.002Z,100536
2019-05-01T14:50:55.647Z,100537
2019-05-01T14:56:19.075Z,100554
2019-05-01T15:01:41.669Z,100534
2019-05-01T15:07:05.327Z,100526
2019-05-01T15:12:28.953Z,100531
2019-05-01T15:17:51.683Z,100541
2019-05-01T15:23:14.310Z,100524
2019-05-01T15:28:36.935Z,100533
2019-05-01T15:33:59.627Z,100522
2019-05-01T15:39:22.263Z,100535
2019-05-01T15:44:47.637Z,100524
2019-05-01T15:50:07.575Z,100536
2019-05-01T15:55:30.191Z,100535
2019-05-01T16:00:52.841Z,100534
2019-05-01T16:06:15.895Z,100521
2019-05-01T16:11:39.852Z,100519
2019-05-01T16:17:02.479Z,100525
2019-05-01T16:22:25.108Z,100510
2019-05-01T16:27:47.738Z,100499
2019-05-01T16:33:10.395Z,100497
2019-05-01T16:38:36.492Z,100498
2019-05-01T16:43:59.147Z,100488
2019-05-01T16:49:21.815Z,100469
2019-05-01T16:54:45.072Z,100479
2019-05-01T17:00:08.672Z,100455
2019-05-01T17:05:31.383Z,100460
2019-05-01T17:10:57.433Z,100451
2019-05-01T17:16:20.069Z,100447
2019-05-01T17:21:42.800Z,100446
2019-05-01T17:27:07.516Z,100447
2019-05-01T17:32:30.185Z,100441
2019-05-01T17:37:52.978Z,100438
2019-05-01T17:43:15.713Z,100436
2019-05-01T17:48:41.286Z,100434
2019-05-01T17:54:04.134Z,100438
2019-05-01T17:59:26.862Z,100430
2019-05-01T18:04:49.657Z,100428
2019-05-01T18:10:12.350Z,100425
2019-05-01T18:15:35.042Z,100429
2019-05-01T18:20:57.681Z,100431
2019-05-01T18:26:21.121Z,100431
2019-05-01T18:31:43.779Z,100432
2019-05-01T18:37:06.762Z,100425
2019-05-01T18:42:29.641Z,100428
2019-05-01T18:47:52.353Z,100434
2019-05-01T18:53:16.084Z,100431
2019-05-01T18:58:38.752Z,100435
2019-05-01T19:04:01.595Z,100437
2019-05-01T19:09:29.998Z,100432
2019-05-01T19:14:48.316Z,100432
2019-05-01T19:20:11.244Z,100430
2019-05-01T19:25:35.181Z,100427
2019-05-01T19:30:58.193Z,100433
2019-05-01T19:36:21.057Z,100433
2019-05-01T19:41:48.896Z,100435
2019-05-01T19:47:08.142Z,100430
2019-05-01T19:52:32.286Z,100424
2019-05-01T19:57:54.661Z,100430
2019-05-01T20:03:17.592Z,100431
2019-05-01T20:08:40.578Z,100432
2019-05-01T20:14:05.932Z,100437
2019-05-01T20:19:26.503Z,100437
2019-05-01T20:24:49.396Z,100435
2019-05-01T20:30:12.344Z,100435
2019-05-01T20:35:35.213Z,100431
2019-05-01T20:40:57.953Z,100432
2019-05-01T20:46:21.169Z,100430
2019-05-01T20:51:45.229Z,100435
2019-05-01T20:57:12.900Z,100429
2019-05-01T21:02:32.837Z,100437
2019-05-01T21:07:58.274Z,100423
2019-05-01T21:13:22.983Z,100431
2019-05-01T21:18:43.444Z,100427
2019-05-01T21:24:06.159Z,100426
2019-05-01T21:29:28.854Z,100419
2019-05-01T21:34:53.677Z,100427
2019-05-01T21:40:15.215Z,100426
2019-05-01T21:45:37.915Z,100423
2019-05-01T21:51:03.201Z,100425
2019-05-01T21:56:25.319Z,100412
2019-05-01T22:01:47.990Z,100409
2019-05-01T22:07:10.723Z,100405
2019-05-01T22:12:33.552Z,100404
2019-05-01T22:17:56.254Z,100395
2019-05-01T22:23:21.869Z,100398
2019-05-01T22:28:41.655Z,100398
2019-05-01T22:34:05.442Z,100399
2019-05-01T22:39:28.835Z,100390
2019-05-01T22:44:51.061Z,100391
2019-05-01T22:50:13.809Z,100387
2019-05-01T22:55:36.608Z,100391
2019-05-01T23:00:59.358Z,100385
2019-05-01T23:06:22.077Z,100377
2019-05-01T23:11:44.801Z,100375
2019-05-01T23:17:07.632Z,100374
2019-05-01T23:22:30.466Z,100371
2019-05-01T23:27:53.183Z,100368
2019-05-01T23:33:16.889Z,100358
2019-05-01T23:38:39.653Z,100355
2019-05-01T23:44:03.362Z,100346
2019-05-01T23:49:25.045Z,100344
2019-05-01T23:54:48.714Z,100338
